createdAt,value
2022-12-01T00:02:06.168Z,50.72
2022-12-01T00:04:32.605Z,48.22
2022-12-01T00:06:58.986Z,48.25
2022-12-01T00:09:54.554Z,55.30
2022-12-01T00:12:21.009Z,55.78
2022-12-01T00:14:54.715Z,55.72
2022-12-01T00:17:21.537Z,51.47
2022-12-01T00:19:48.312Z,58.00
2022-12-01T00:22:14.848Z,61.72
2022-12-01T00:24:41.232Z,56.55
2022-12-01T00:27:07.612Z,56.45
2022-12-01T00:29:33.960Z,56.60
2022-12-01T00:32:00.374Z,63.58
2022-12-01T00:34:28.092Z,55.67
2022-12-01T00:36:54.566Z,56.67
2022-12-01T00:39:21.315Z,57.13
2022-12-01T00:41:47.701Z,58.42
2022-12-01T00:44:14.460Z,54.55
2022-12-01T00:46:40.842Z,53.83
2022-12-01T00:49:07.340Z,53.65
2022-12-01T00:51:33.697Z,53.25
2022-12-01T00:54:00.138Z,55.40
2022-12-01T00:56:26.621Z,52.30
2022-12-01T00:58:53.014Z,49.30
2022-12-01T01:01:19.517Z,54.35
2022-12-01T01:03:46.274Z,53.25
2022-12-01T01:06:13.200Z,52.40
2022-12-01T01:08:40.051Z,55.80
2022-12-01T01:11:07.065Z,56.95
2022-12-01T01:13:34.297Z,58.22
2022-12-01T01:16:03.077Z,59.50
2022-12-01T01:18:30.427Z,61.55
2022-12-01T01:21:03.228Z,59.58
2022-12-01T01:23:30.197Z,59.70
2022-12-01T01:26:08.463Z,57.42
2022-12-01T01:28:35.354Z,63.67
2022-12-01T01:31:06.740Z,61.33
2022-12-01T01:33:33.189Z,64.45
2022-12-01T01:36:00.211Z,74.85
2022-12-01T01:38:27.683Z,72.93
2022-12-01T01:40:54.331Z,66.03
2022-12-01T01:43:44.483Z,65.88
2022-12-01T01:46:16.669Z,73.18
2022-12-01T01:48:47.937Z,67.90
2022-12-01T01:51:17.066Z,67.50
2022-12-01T01:53:45.915Z,67.70
2022-12-01T01:56:12.573Z,71.35
2022-12-01T01:58:40.136Z,64.65
2022-12-01T02:01:07.418Z,62.67
2022-12-01T02:03:35.571Z,66.55
2022-12-01T02:06:05.177Z,64.07
2022-12-01T02:08:34.291Z,67.05
2022-12-01T02:11:28.925Z,64.20
2022-12-01T02:14:12.489Z,65.10
2022-12-01T02:16:56.659Z,66.32
2022-12-01T02:19:42.745Z,62.25
2022-12-01T02:22:29.397Z,61.38
2022-12-01T02:25:29.447Z,62.45
2022-12-01T02:28:15.405Z,64.45
2022-12-01T02:30:49.736Z,60.00
2022-12-01T02:33:23.084Z,59.25
2022-12-01T02:36:03.262Z,59.28
2022-12-01T02:38:47.797Z,56.05
2022-12-01T02:41:25.486Z,63.65
2022-12-01T02:44:10.636Z,61.72
2022-12-01T02:46:51.572Z,60.88
2022-12-01T02:49:23.286Z,59.13
2022-12-01T02:51:52.325Z,56.60
2022-12-01T02:54:19.720Z,65.03
2022-12-01T02:56:46.166Z,61.22
2022-12-01T02:59:15.346Z,58.53
2022-12-01T03:02:18.666Z,62.92
2022-12-01T03:04:50.779Z,57.08
2022-12-01T03:07:40.633Z,61.38
2022-12-01T03:10:25.693Z,61.53
2022-12-01T03:13:06.568Z,59.38
2022-12-01T03:16:01.871Z,59.45
2022-12-01T03:18:56.513Z,60.78
2022-12-01T03:21:33.613Z,58.60
2022-12-01T03:24:05.312Z,65.15
2022-12-01T03:26:36.481Z,61.22
2022-12-01T03:29:14.842Z,61.92
2022-12-01T03:31:53.145Z,63.13
2022-12-01T03:34:33.325Z,62.78
2022-12-01T03:37:06.720Z,76.35
2022-12-01T03:39:38.174Z,71.50
2022-12-01T03:42:20.239Z,74.75
2022-12-01T03:44:54.080Z,73.15
2022-12-01T03:47:24.143Z,71.10
2022-12-01T03:49:53.258Z,72.10
2022-12-01T03:52:28.759Z,71.82
2022-12-01T03:55:13.266Z,71.22
2022-12-01T03:57:53.118Z,70.38
2022-12-01T04:00:19.909Z,68.50
2022-12-01T04:02:46.535Z,68.90
2022-12-01T04:05:13.300Z,66.50
2022-12-01T04:07:40.369Z,65.43
2022-12-01T04:10:07.703Z,67.05
2022-12-01T04:12:34.222Z,69.03
2022-12-01T04:15:06.370Z,64.70
2022-12-01T04:17:32.871Z,62.50
2022-12-01T04:19:59.290Z,63.47
2022-12-01T04:22:27.144Z,61.45
2022-12-01T04:24:53.506Z,56.97
2022-12-01T04:27:20.416Z,57.58
2022-12-01T04:29:47.151Z,59.90
2022-12-01T04:32:14.161Z,55.15
2022-12-01T04:34:40.507Z,57.83
2022-12-01T04:37:07.479Z,56.70
2022-12-01T04:39:34.418Z,55.75
2022-12-01T04:42:00.836Z,54.55
2022-12-01T04:44:32.966Z,58.85
2022-12-01T04:47:01.234Z,56.97
2022-12-01T04:49:27.685Z,52.15
2022-12-01T04:51:54.305Z,55.42
2022-12-01T04:54:20.737Z,51.47
2022-12-01T04:56:47.125Z,54.45
2022-12-01T04:59:13.760Z,57.28
2022-12-01T05:01:40.501Z,52.80
2022-12-01T05:04:07.292Z,52.25
2022-12-01T05:06:33.801Z,55.55
2022-12-01T05:09:01.913Z,53.38
2022-12-01T05:11:29.770Z,56.00
2022-12-01T05:13:56.171Z,58.10
2022-12-01T05:16:25.222Z,53.80
2022-12-01T05:19:13.312Z,58.05
2022-12-01T05:21:41.433Z,55.33
2022-12-01T05:24:09.392Z,55.88
2022-12-01T05:26:35.789Z,56.05
2022-12-01T05:29:02.444Z,52.38
2022-12-01T05:31:29.353Z,52.20
2022-12-01T05:33:55.725Z,53.67
2022-12-01T05:36:22.500Z,52.20
2022-12-01T05:38:48.954Z,53.67
2022-12-01T05:41:15.519Z,55.13
2022-12-01T05:43:41.883Z,54.08
2022-12-01T05:46:08.621Z,48.58
2022-12-01T05:48:35.031Z,48.03
2022-12-01T05:51:09.116Z,46.60
2022-12-01T05:53:35.502Z,49.13
2022-12-01T05:56:01.926Z,44.17
2022-12-01T05:58:28.386Z,50.10
2022-12-01T06:00:54.731Z,48.33
2022-12-01T06:03:21.140Z,42.25
2022-12-01T06:05:49.007Z,42.83
2022-12-01T06:08:15.476Z,44.75
2022-12-01T06:10:41.875Z,42.20
2022-12-01T06:13:08.565Z,40.60
2022-12-01T06:15:35.035Z,41.35
2022-12-01T06:18:01.707Z,41.00
2022-12-01T06:20:28.279Z,42.78
2022-12-01T06:22:54.974Z,41.33
2022-12-01T06:25:21.446Z,44.95
2022-12-01T06:27:47.863Z,45.58
2022-12-01T06:30:14.442Z,44.75
2022-12-01T06:32:41.334Z,38.53
2022-12-01T06:35:08.098Z,41.80
2022-12-01T06:37:34.465Z,42.28
2022-12-01T06:40:00.866Z,41.67
2022-12-01T06:42:30.321Z,42.13
2022-12-01T06:44:56.694Z,40.60
2022-12-01T06:47:23.116Z,42.92
2022-12-01T06:49:49.671Z,44.85
2022-12-01T06:52:16.171Z,43.70
2022-12-01T06:54:42.519Z,43.80
2022-12-01T06:57:09.132Z,43.20
2022-12-01T06:59:35.909Z,41.22
2022-12-01T07:02:03.153Z,41.95
2022-12-01T07:04:30.187Z,43.63
2022-12-01T07:06:56.618Z,43.25
2022-12-01T07:09:22.967Z,43.05
2022-12-01T07:11:49.316Z,44.67
2022-12-01T07:14:23.904Z,46.35
2022-12-01T07:16:50.544Z,44.53
2022-12-01T07:19:16.963Z,46.95
2022-12-01T07:21:43.744Z,46.00
2022-12-01T07:24:12.447Z,76.47
2022-12-01T07:26:40.244Z,56.90
2022-12-01T07:29:07.169Z,53.40
2022-12-01T07:31:33.511Z,51.00
2022-12-01T07:33:59.942Z,54.30
2022-12-01T07:36:26.348Z,56.60
2022-12-01T07:38:52.740Z,52.42
2022-12-01T07:41:19.423Z,57.17
2022-12-01T07:43:46.538Z,56.83
2022-12-01T07:46:21.761Z,52.42
2022-12-01T07:48:49.003Z,52.35
2022-12-01T07:51:16.723Z,50.72
2022-12-01T07:53:44.653Z,49.58
2022-12-01T07:56:11.693Z,51.17
2022-12-01T07:58:38.363Z,54.58
2022-12-01T08:01:13.854Z,49.88
2022-12-01T08:03:41.254Z,51.78
2022-12-01T08:06:08.694Z,53.75
2022-12-01T08:08:37.524Z,53.28
2022-12-01T08:11:06.887Z,52.00
2022-12-01T08:13:33.764Z,52.60
2022-12-01T08:16:04.237Z,53.15
2022-12-01T08:20:58.281Z,50.45
2022-12-01T08:23:24.898Z,54.20
2022-12-01T08:25:52.553Z,56.13
2022-12-01T08:28:19.897Z,59.58
2022-12-01T08:30:46.988Z,56.05
2022-12-01T08:33:13.422Z,58.20
2022-12-01T08:35:39.769Z,58.80
2022-12-01T08:38:06.314Z,58.67
2022-12-01T08:40:32.667Z,59.13
2022-12-01T08:42:59.098Z,55.42
2022-12-01T08:45:25.506Z,60.50
2022-12-01T08:47:53.911Z,55.55
2022-12-01T08:50:20.279Z,59.40
2022-12-01T08:52:47.747Z,57.13
2022-12-01T08:55:14.186Z,56.30
2022-12-01T08:57:40.603Z,53.38
2022-12-01T09:00:07.718Z,54.50
2022-12-01T09:02:37.558Z,62.63
2022-12-01T09:05:04.830Z,64.38
2022-12-01T09:07:31.325Z,67.63
2022-12-01T09:09:57.727Z,60.13
2022-12-01T09:12:24.081Z,56.55
2022-12-01T09:14:50.436Z,62.08
2022-12-01T09:17:17.596Z,64.05
2022-12-01T09:19:44.573Z,58.75
2022-12-01T09:22:11.876Z,53.17
2022-12-01T09:24:38.645Z,59.28
2022-12-01T09:27:05.416Z,51.22
2022-12-01T09:29:32.294Z,59.83
2022-12-01T09:31:59.791Z,50.38
2022-12-01T09:34:27.686Z,52.25
2022-12-01T09:36:58.458Z,55.63
2022-12-01T09:39:25.563Z,53.03
2022-12-01T09:42:33.826Z,53.08
2022-12-01T09:45:04.950Z,50.77
2022-12-01T09:47:34.674Z,55.13
2022-12-01T09:50:03.092Z,54.42
2022-12-01T09:52:44.791Z,56.28
2022-12-01T09:55:16.910Z,56.50
2022-12-01T09:57:44.619Z,50.10
2022-12-01T10:00:11.519Z,51.22
2022-12-01T10:02:48.507Z,51.53
2022-12-01T10:05:19.960Z,46.90
2022-12-01T10:07:58.658Z,49.90
2022-12-01T10:10:52.695Z,47.85
2022-12-01T10:13:21.797Z,46.47
2022-12-01T10:15:54.369Z,46.45
2022-12-01T10:18:36.130Z,46.00
2022-12-01T10:21:20.594Z,42.50
2022-12-01T10:24:12.042Z,45.30
2022-12-01T10:26:44.633Z,45.20
2022-12-01T10:29:16.222Z,42.95
2022-12-01T10:31:53.347Z,43.80
2022-12-01T10:34:36.172Z,43.97
2022-12-01T10:37:02.915Z,42.47
2022-12-01T10:39:41.055Z,42.53
2022-12-01T10:42:14.714Z,46.70
2022-12-01T10:44:42.265Z,42.50
2022-12-01T10:47:25.483Z,41.40
2022-12-01T10:49:52.790Z,39.63
2022-12-01T10:52:38.527Z,39.33
2022-12-01T10:55:29.035Z,41.65
2022-12-01T11:00:57.925Z,35.72
2022-12-01T11:03:22.457Z,37.90
2022-12-01T11:05:54.840Z,43.20
2022-12-01T11:09:01.142Z,38.17
2022-12-01T11:11:39.898Z,40.13
2022-12-01T11:14:18.547Z,40.85
2022-12-01T11:16:48.183Z,43.50
2022-12-01T11:19:34.666Z,34.97
2022-12-01T11:22:18.195Z,37.63
2022-12-01T11:25:05.604Z,45.35
2022-12-01T11:27:45.758Z,36.95
2022-12-01T11:30:26.941Z,38.88
2022-12-01T11:32:56.560Z,39.25
2022-12-01T11:35:26.252Z,41.38
2022-12-01T11:38:27.883Z,36.75
2022-12-01T11:40:57.126Z,38.15
2022-12-01T11:43:33.024Z,34.38
2022-12-01T11:46:03.798Z,36.45
2022-12-01T11:48:32.429Z,34.92
2022-12-01T11:51:07.058Z,39.45
2022-12-01T11:53:39.662Z,33.63
2022-12-01T11:56:15.698Z,36.40
2022-12-01T11:58:43.935Z,33.30
2022-12-01T12:01:23.968Z,38.42
2022-12-01T12:04:10.551Z,35.08
2022-12-01T12:07:14.510Z,35.38
2022-12-01T12:09:47.055Z,35.80
2022-12-01T12:12:25.609Z,34.17
2022-12-01T12:15:20.184Z,33.50
2022-12-01T12:18:04.690Z,64.13
2022-12-01T12:20:37.704Z,145.48
2022-12-01T12:23:25.537Z,45.30
2022-12-01T12:26:13.409Z,37.13
2022-12-01T12:28:52.988Z,35.28
2022-12-01T12:31:19.299Z,33.40
2022-12-01T12:34:13.730Z,35.58
2022-12-01T12:37:06.846Z,29.27
2022-12-01T12:40:04.842Z,29.20
2022-12-01T12:42:46.172Z,28.17
2022-12-01T12:45:21.871Z,29.27
2022-12-01T12:47:51.273Z,29.25
2022-12-01T12:50:28.224Z,26.65
2022-12-01T12:52:59.399Z,27.52
2022-12-01T12:55:48.216Z,27.00
2022-12-01T12:58:31.499Z,25.13
2022-12-01T13:01:03.544Z,27.60
2022-12-01T13:03:33.921Z,27.05
2022-12-01T13:06:07.204Z,27.80
2022-12-01T13:08:57.253Z,25.77
2022-12-01T13:11:34.866Z,26.63
2022-12-01T13:14:18.535Z,27.60
2022-12-01T13:16:50.409Z,26.67
2022-12-01T13:19:25.206Z,30.38
2022-12-01T13:21:53.448Z,29.50
2022-12-01T13:24:24.041Z,29.08
2022-12-01T13:27:05.137Z,29.08
2022-12-01T13:29:38.412Z,27.88
2022-12-01T13:32:34.533Z,30.48
2022-12-01T13:35:06.346Z,33.58
2022-12-01T13:37:35.255Z,33.17
2022-12-01T13:40:31.351Z,36.00
2022-12-01T13:43:04.229Z,32.92
2022-12-01T13:45:37.367Z,35.83
2022-12-01T13:48:05.892Z,34.08
2022-12-01T13:50:45.991Z,38.00
2022-12-01T13:53:52.687Z,101.35
2022-12-01T13:56:27.536Z,152.90
2022-12-01T13:58:54.733Z,55.72
2022-12-01T14:01:21.489Z,38.65
2022-12-01T14:03:57.264Z,35.50
2022-12-01T14:06:35.766Z,41.08
2022-12-01T14:09:08.027Z,32.92
2022-12-01T14:11:34.996Z,33.35
2022-12-01T14:14:24.385Z,32.50
2022-12-01T14:16:58.640Z,33.95
2022-12-01T14:19:32.559Z,33.22
2022-12-01T14:22:00.780Z,33.78
2022-12-01T14:24:51.668Z,31.42
2022-12-01T14:27:33.772Z,32.83
2022-12-01T14:30:40.928Z,36.28
2022-12-01T14:33:47.649Z,32.10
2022-12-01T14:36:23.119Z,34.15
2022-12-01T14:38:59.940Z,32.55
2022-12-01T14:41:32.196Z,34.45
2022-12-01T14:44:16.759Z,34.30
2022-12-01T14:46:45.195Z,34.45
2022-12-01T14:49:17.793Z,35.40
2022-12-01T14:51:47.214Z,36.25
2022-12-01T14:54:46.373Z,35.88
2022-12-01T14:57:17.463Z,43.92
2022-12-01T14:59:44.671Z,43.28
2022-12-01T15:02:12.335Z,40.60
2022-12-01T15:05:08.853Z,43.72
2022-12-01T15:07:40.765Z,74.70
2022-12-01T15:10:17.408Z,48.40
2022-12-01T15:12:43.896Z,64.20
2022-12-01T15:15:25.728Z,84.82
2022-12-01T15:17:55.456Z,55.17
2022-12-01T15:20:38.030Z,72.70
2022-12-01T15:23:12.191Z,91.55
2022-12-01T15:25:42.470Z,57.45
2022-12-01T15:28:18.067Z,45.38
2022-12-01T15:30:47.970Z,45.42
2022-12-01T15:33:27.314Z,45.92
2022-12-01T15:35:56.268Z,41.28
2022-12-01T15:38:27.243Z,44.42
2022-12-01T15:41:21.319Z,44.60
2022-12-01T15:43:41.658Z,50.88
2022-12-01T15:46:14.307Z,54.42
2022-12-01T15:48:41.531Z,50.53
2022-12-01T15:51:10.438Z,51.60
2022-12-01T15:53:42.594Z,55.47
2022-12-01T15:56:11.212Z,51.45
2022-12-01T15:58:49.195Z,53.17
2022-12-01T16:01:18.643Z,57.53
2022-12-01T16:04:00.276Z,59.28
2022-12-01T16:06:30.332Z,55.47
2022-12-01T16:09:23.019Z,60.50
2022-12-01T16:12:14.271Z,61.13
2022-12-01T16:14:53.007Z,61.75
2022-12-01T16:17:19.419Z,63.28
2022-12-01T16:19:45.960Z,63.63
2022-12-01T16:22:12.296Z,66.65
2022-12-01T16:24:52.108Z,69.28
2022-12-01T16:27:24.590Z,67.40
2022-12-01T16:29:53.115Z,63.53
2022-12-01T16:32:40.727Z,68.88
2022-12-01T16:35:30.341Z,64.85
2022-12-01T16:37:57.950Z,69.23
2022-12-01T16:40:24.711Z,74.30
2022-12-01T16:42:51.053Z,69.75
2022-12-01T16:45:18.959Z,70.18
2022-12-01T16:47:47.442Z,64.80
2022-12-01T16:50:19.385Z,70.43
2022-12-01T16:52:46.845Z,69.00
2022-12-01T16:55:35.125Z,66.38
2022-12-01T16:58:01.486Z,70.40
2022-12-01T17:00:29.392Z,67.97
2022-12-01T17:02:55.936Z,75.95
2022-12-01T17:05:22.496Z,72.60
2022-12-01T17:07:48.941Z,79.13
2022-12-01T17:10:15.856Z,81.90
2022-12-01T17:12:42.205Z,67.50
2022-12-01T17:15:09.993Z,68.45
2022-12-01T17:17:36.928Z,96.45
2022-12-01T17:20:05.095Z,62.90
2022-12-01T17:22:31.818Z,67.57
2022-12-01T17:24:59.375Z,60.05
2022-12-01T17:27:27.624Z,60.55
2022-12-01T17:29:54.739Z,63.15
2022-12-01T17:32:21.172Z,63.97
2022-12-01T17:34:47.789Z,62.20
2022-12-01T17:37:20.445Z,70.10
2022-12-01T17:39:47.248Z,62.38
2022-12-01T17:42:13.595Z,60.10
2022-12-01T17:44:40.236Z,65.60
2022-12-01T17:47:06.692Z,59.13
2022-12-01T17:49:35.504Z,64.75
2022-12-01T17:52:02.482Z,61.58
2022-12-01T17:54:28.834Z,61.35
2022-12-01T17:56:55.212Z,55.90
2022-12-01T17:59:21.592Z,60.88
2022-12-01T18:01:50.853Z,67.25
2022-12-01T18:04:17.253Z,56.97
2022-12-01T18:06:43.630Z,58.45
2022-12-01T18:09:10.054Z,65.43
2022-12-01T18:11:36.420Z,56.90
2022-12-01T18:14:02.874Z,58.78
2022-12-01T18:16:31.727Z,55.83
2022-12-01T18:18:59.632Z,60.67
2022-12-01T18:21:27.488Z,56.90
2022-12-01T18:23:56.087Z,58.85
2022-12-01T18:26:25.027Z,64.55
2022-12-01T18:29:07.290Z,61.88
2022-12-01T18:31:34.368Z,64.03
2022-12-01T18:34:03.010Z,59.00
2022-12-01T18:36:31.551Z,59.35
2022-12-01T18:38:59.424Z,57.10
2022-12-01T18:41:26.653Z,57.75
2022-12-01T18:43:53.278Z,62.15
2022-12-01T18:46:20.606Z,64.35
2022-12-01T18:48:50.047Z,66.25
2022-12-01T18:51:16.908Z,57.95
2022-12-01T18:53:45.356Z,59.42
2022-12-01T18:56:15.066Z,56.65
2022-12-01T18:58:41.829Z,91.57
2022-12-01T19:01:20.919Z,87.55
2022-12-01T19:03:47.823Z,64.03
2022-12-01T19:06:14.356Z,61.88
2022-12-01T19:08:41.281Z,62.50
2022-12-01T19:11:08.138Z,60.55
2022-12-01T19:13:35.033Z,63.28
2022-12-01T19:16:09.945Z,64.03
2022-12-01T19:18:37.286Z,63.45
2022-12-01T19:21:05.735Z,57.38
2022-12-01T19:23:32.754Z,57.70
2022-12-01T19:26:02.098Z,56.00
2022-12-01T19:28:28.553Z,51.30
2022-12-01T19:30:54.931Z,56.05
2022-12-01T19:33:21.312Z,52.75
2022-12-01T19:35:47.708Z,50.80
2022-12-01T19:38:14.242Z,52.83
2022-12-01T19:40:42.080Z,54.45
2022-12-01T19:43:09.025Z,63.22
2022-12-01T19:45:39.709Z,56.85
2022-12-01T19:48:06.652Z,50.28
2022-12-01T19:50:36.551Z,50.42
2022-12-01T19:53:04.271Z,53.17
2022-12-01T19:55:30.878Z,58.00
2022-12-01T19:57:57.269Z,57.45
2022-12-01T20:00:25.702Z,51.47
2022-12-01T20:02:52.423Z,53.60
2022-12-01T20:05:18.909Z,69.03
2022-12-01T20:07:45.415Z,49.92
2022-12-01T20:10:11.809Z,53.92
2022-12-01T20:12:38.290Z,43.50
2022-12-01T20:15:08.480Z,42.60
2022-12-01T20:17:36.513Z,53.40
2022-12-01T20:20:03.528Z,57.03
2022-12-01T20:22:34.144Z,57.50
2022-12-01T20:25:01.004Z,57.92
2022-12-01T20:27:28.278Z,54.08
2022-12-01T20:29:55.263Z,47.10
2022-12-01T20:32:23.791Z,43.22
2022-12-01T20:34:50.920Z,41.88
2022-12-01T20:37:17.811Z,44.80
2022-12-01T20:39:44.177Z,42.70
2022-12-01T20:42:10.909Z,40.47
2022-12-01T20:44:37.956Z,41.92
2022-12-01T20:47:04.429Z,48.95
2022-12-01T20:49:30.828Z,41.70
2022-12-01T20:51:57.391Z,42.90
2022-12-01T20:54:28.731Z,46.22
2022-12-01T20:56:56.200Z,53.67
2022-12-01T20:59:22.676Z,56.50
2022-12-01T21:01:49.061Z,51.45
2022-12-01T21:04:15.419Z,56.80
2022-12-01T21:06:42.256Z,74.95
2022-12-01T21:09:08.825Z,50.53
2022-12-01T21:12:02.239Z,53.15
2022-12-01T21:14:42.946Z,48.17
2022-12-01T21:17:18.204Z,42.13
2022-12-01T21:20:01.601Z,44.78
2022-12-01T21:22:28.091Z,47.05
2022-12-01T21:25:03.160Z,53.10
2022-12-01T21:27:29.787Z,47.60
2022-12-01T21:29:56.813Z,43.92
2022-12-01T21:32:32.987Z,48.65
2022-12-01T21:35:14.612Z,55.22
2022-12-01T21:37:41.195Z,45.55
2022-12-01T21:40:16.284Z,49.50
2022-12-01T21:42:42.699Z,51.25
2022-12-01T21:45:18.082Z,46.70
2022-12-01T21:47:44.588Z,107.82
2022-12-01T21:50:20.907Z,48.03
2022-12-01T21:52:48.054Z,40.90
2022-12-01T21:55:14.358Z,40.58
2022-12-01T21:57:45.463Z,55.40
2022-12-01T22:00:35.640Z,43.25
2022-12-01T22:03:08.087Z,45.47
2022-12-01T22:06:28.360Z,42.92
2022-12-01T22:08:51.599Z,39.08
2022-12-01T22:11:22.441Z,46.38
2022-12-01T22:13:51.735Z,39.28
2022-12-01T22:16:32.611Z,43.38
2022-12-01T22:19:01.594Z,41.33
2022-12-01T22:21:30.623Z,39.35
2022-12-01T22:24:09.136Z,37.63
2022-12-01T22:26:47.661Z,40.97
2022-12-01T22:29:31.173Z,40.30
2022-12-01T22:32:26.427Z,38.38
2022-12-01T22:34:56.545Z,39.63
2022-12-01T22:37:27.410Z,38.08
2022-12-01T22:39:55.614Z,37.95
2022-12-01T22:42:30.708Z,38.00
2022-12-01T22:45:02.587Z,38.72
2022-12-01T22:47:32.573Z,40.90
2022-12-01T22:49:59.175Z,39.72
2022-12-01T22:52:29.774Z,41.17
2022-12-01T22:54:56.194Z,40.80
2022-12-01T22:57:33.052Z,41.28
2022-12-01T23:00:17.156Z,39.25
2022-12-01T23:02:43.615Z,40.25
2022-12-01T23:05:30.653Z,38.35
2022-12-01T23:07:57.548Z,38.85
2022-12-01T23:10:30.978Z,38.58
2022-12-01T23:13:00.572Z,39.03
2022-12-01T23:15:38.000Z,39.25
2022-12-01T23:18:16.555Z,38.22
2022-12-01T23:20:46.032Z,38.05
2022-12-01T23:23:30.271Z,39.63
2022-12-01T23:25:57.875Z,40.58
2022-12-01T23:28:24.803Z,38.67
2022-12-01T23:30:54.543Z,39.97
2022-12-01T23:33:23.426Z,41.10
2022-12-01T23:35:57.974Z,38.17
2022-12-01T23:38:39.373Z,39.25
2022-12-01T23:41:10.422Z,39.17
2022-12-01T23:43:42.459Z,39.25
2022-12-01T23:46:16.333Z,36.40
2022-12-01T23:48:46.911Z,37.42
2022-12-01T23:51:16.806Z,39.80
2022-12-01T23:53:43.418Z,41.78
2022-12-01T23:56:18.644Z,41.88
2022-12-01T23:58:45.237Z,41.97
